Time;durP1;ratioP1;P1;durP2;ratioP2;P2;SDS_P1;SDS_P2;PMS_P1;PMS_P2;Temp;Humidity;BMP_temperature;BMP_pressure;BME280_temperature;BME280_humidity;BME280_pressure;Samples;Min_cycle;Max_cycle;Signal;HPM_P1;HPM_P2
2021/05/26 00:01:32;;;;;;;0.80;0.45;;;;;;;;;;5049871;28;20021;-92
2021/05/26 00:03:58;;;;;;;3.42;0.80;;;;;;;;;;5038883;28;20108;-95
2021/05/26 00:06:24;;;;;;;2.13;0.75;;;;;;;;;;5021176;28;20054;-95
2021/05/26 00:08:50;;;;;;;1.55;0.60;;;;;;;;;;5021230;28;20058;-94
2021/05/26 00:11:19;;;;;;;1.48;0.70;;;;;;;;;;5015253;28;20475;-94
2021/05/26 00:13:47;;;;;;;1.63;0.80;;;;;;;;;;5034479;28;20026;-94
2021/05/26 00:16:13;;;;;;;2.10;0.65;;;;;;;;;;5036627;28;20026;-95
2021/05/26 00:18:39;;;;;;;3.03;0.63;;;;;;;;;;5048132;28;20030;-94
2021/05/26 00:21:07;;;;;;;1.67;0.70;;;;;;;;;;5038285;28;20029;-94
2021/05/26 00:23:33;;;;;;;0.83;0.40;;;;;;;;;;5043260;28;20040;-95
2021/05/26 00:25:59;;;;;;;2.45;1.00;;;;;;;;;;5055450;28;20251;-93
2021/05/26 00:28:25;;;;;;;1.80;0.77;;;;;;;;;;5052186;28;20033;-93
2021/05/26 00:30:52;;;;;;;0.95;0.60;;;;;;;;;;5040229;28;20065;-95
2021/05/26 00:33:19;;;;;;;2.00;0.60;;;;;;;;;;5022648;28;20026;-95
2021/05/26 00:35:45;;;;;;;1.60;0.57;;;;;;;;;;5021090;28;20118;-94
2021/05/26 00:38:12;;;;;;;4.45;0.82;;;;;;;;;;5032232;28;20009;-93
2021/05/26 00:40:38;;;;;;;0.85;0.65;;;;;;;;;;5032124;28;20026;-95
2021/05/26 00:43:04;;;;;;;2.00;0.57;;;;;;;;;;5048337;28;20029;-94
2021/05/26 00:45:30;;;;;;;2.38;0.60;;;;;;;;;;5048283;28;20032;-93
2021/05/26 00:47:56;;;;;;;2.50;0.60;;;;;;;;;;5053934;28;20120;-94
2021/05/26 00:50:24;;;;;;;0.85;0.70;;;;;;;;;;5052282;28;20045;-94
2021/05/26 00:52:52;;;;;;;2.50;0.80;;;;;;;;;;5037347;28;20048;-93
2021/05/26 00:55:19;;;;;;;0.67;0.57;;;;;;;;;;5057120;28;20034;-95
2021/05/26 00:57:47;;;;;;;1.52;0.63;;;;;;;;;;5051742;28;20329;-94
2021/05/26 01:00:14;;;;;;;1.15;0.80;;;;;;;;;;5035766;28;20022;-92
2021/05/26 01:02:40;;;;;;;2.13;0.77;;;;;;;;;;5030301;28;20057;-94
2021/05/26 01:05:07;;;;;;;2.05;0.85;;;;;;;;;;5044722;28;20145;-94
2021/05/26 01:07:33;;;;;;;1.70;0.80;;;;;;;;;;5038461;28;20470;-94
2021/05/26 01:10:01;;;;;;;1.75;0.93;;;;;;;;;;5043810;28;20049;-93
2021/05/26 01:12:27;;;;;;;1.17;0.70;;;;;;;;;;5029502;28;20381;-94
2021/05/26 01:14:53;;;;;;;3.30;0.82;;;;;;;;;;5028491;28;20056;-93
2021/05/26 01:17:19;;;;;;;1.27;0.70;;;;;;;;;;5038282;28;20026;-95
2021/05/26 01:19:45;;;;;;;1.42;0.70;;;;;;;;;;5036958;28;20033;-95
2021/05/26 01:22:11;;;;;;;2.15;0.73;;;;;;;;;;5018121;28;20026;-94
2021/05/26 01:24:37;;;;;;;1.75;0.80;;;;;;;;;;5023952;28;20113;-94
2021/05/26 01:27:04;;;;;;;2.42;0.80;;;;;;;;;;5024209;28;20501;-94
2021/05/26 01:29:30;;;;;;;1.52;0.60;;;;;;;;;;5020539;28;20187;-95
2021/05/26 01:31:56;;;;;;;1.13;0.60;;;;;;;;;;5026131;28;20089;-93
2021/05/26 01:34:22;;;;;;;3.88;0.80;;;;;;;;;;5035184;28;20034;-95
2021/05/26 01:36:49;;;;;;;4.03;0.80;;;;;;;;;;5039060;28;20036;-92
2021/05/26 01:39:17;;;;;;;1.70;0.70;;;;;;;;;;5027545;28;20384;-95
2021/05/26 01:41:44;;;;;;;1.05;0.60;;;;;;;;;;5023016;28;20025;-95
2021/05/26 01:44:10;;;;;;;1.73;0.65;;;;;;;;;;5019827;28;20029;-94
2021/05/26 01:46:36;;;;;;;1.85;1.00;;;;;;;;;;5048975;28;20056;-92
2021/05/26 01:49:04;;;;;;;1.98;0.80;;;;;;;;;;5039288;28;20037;-96
2021/05/26 01:51:30;;;;;;;1.52;0.80;;;;;;;;;;5026804;28;20046;-92
2021/05/26 01:53:56;;;;;;;2.47;0.80;;;;;;;;;;5020576;28;20077;-96
2021/05/26 01:56:23;;;;;;;2.30;0.70;;;;;;;;;;5018600;28;20029;-95
2021/05/26 01:58:50;;;;;;;0.90;0.50;;;;;;;;;;5049816;28;20025;-93
2021/05/26 02:01:19;;;;;;;0.68;0.52;;;;;;;;;;5051915;28;20029;-92
2021/05/26 02:03:46;;;;;;;1.80;0.60;;;;;;;;;;5039591;28;20088;-95
2021/05/26 02:06:13;;;;;;;1.00;0.55;;;;;;;;;;5037119;28;20029;-95
2021/05/26 02:08:40;;;;;;;1.35;0.70;;;;;;;;;;5033654;28;20125;-94
2021/05/26 02:13:51;;;;;;;3.17;0.80;;;;;;;;;;5042442;28;20492;-94
2021/05/26 02:16:17;;;;;;;1.73;0.80;;;;;;;;;;5034572;28;20022;-93
2021/05/26 02:18:43;;;;;;;1.48;0.73;;;;;;;;;;5036757;28;20040;-95
2021/05/26 02:21:09;;;;;;;1.85;0.90;;;;;;;;;;5037605;28;20022;-93
2021/05/26 02:23:35;;;;;;;2.92;0.80;;;;;;;;;;5015914;28;20034;-94
2021/05/26 02:26:01;;;;;;;3.35;0.68;;;;;;;;;;5042690;28;20029;-94
2021/05/26 02:28:27;;;;;;;0.60;0.40;;;;;;;;;;5037445;28;20044;-94
2021/05/26 02:30:53;;;;;;;1.10;0.75;;;;;;;;;;5042270;28;20025;-94
2021/05/26 02:33:20;;;;;;;2.33;0.70;;;;;;;;;;5033110;28;20037;-95
2021/05/26 02:35:46;;;;;;;1.65;0.80;;;;;;;;;;5017084;28;20025;-93
2021/05/26 02:38:13;;;;;;;2.80;0.60;;;;;;;;;;5016876;28;20061;-93
2021/05/26 02:40:39;;;;;;;1.65;0.90;;;;;;;;;;5033583;28;20026;-95
2021/05/26 02:43:05;;;;;;;2.35;0.90;;;;;;;;;;5036881;28;20482;-95
2021/05/26 02:45:31;;;;;;;1.40;0.60;;;;;;;;;;5029492;28;20032;-93
2021/05/26 02:47:58;;;;;;;2.75;1.00;;;;;;;;;;5017126;28;20038;-93
2021/05/26 02:50:24;;;;;;;0.85;0.70;;;;;;;;;;5018759;28;20038;-95
2021/05/26 02:52:51;;;;;;;0.95;0.50;;;;;;;;;;5039645;28;20161;-93
2021/05/26 02:55:17;;;;;;;2.50;0.75;;;;;;;;;;5037142;28;20029;-94
2021/05/26 02:57:43;;;;;;;1.67;0.73;;;;;;;;;;5046795;28;20029;-93
2021/05/26 03:00:10;;;;;;;1.35;0.70;;;;;;;;;;5050867;28;20029;-94
2021/05/26 03:02:36;;;;;;;0.77;0.60;;;;;;;;;;5040509;28;20032;-94
2021/05/26 03:05:02;;;;;;;0.82;0.68;;;;;;;;;;5040247;28;20034;-94
2021/05/26 03:07:28;;;;;;;2.17;0.65;;;;;;;;;;5039267;28;20025;-94
2021/05/26 03:09:54;;;;;;;1.30;0.47;;;;;;;;;;5032250;28;20557;-94
2021/05/26 03:12:20;;;;;;;4.95;0.70;;;;;;;;;;5026118;28;20029;-95
2021/05/26 03:14:46;;;;;;;1.65;0.70;;;;;;;;;;5019293;28;20052;-93
2021/05/26 03:17:12;;;;;;;1.70;0.80;;;;;;;;;;5032063;28;20021;-93
2021/05/26 03:19:39;;;;;;;1.17;0.70;;;;;;;;;;5036042;28;20075;-94
2021/05/26 03:22:05;;;;;;;3.08;0.88;;;;;;;;;;5016219;28;20041;-94
2021/05/26 03:24:31;;;;;;;2.03;0.95;;;;;;;;;;5030375;28;20040;-93
2021/05/26 03:26:57;;;;;;;1.30;0.70;;;;;;;;;;5037406;28;20025;-94
2021/05/26 03:29:23;;;;;;;0.70;0.70;;;;;;;;;;5045098;28;20489;-93
2021/05/26 03:31:49;;;;;;;2.22;0.65;;;;;;;;;;5041603;28;20021;-93
2021/05/26 03:34:15;;;;;;;1.85;0.70;;;;;;;;;;5027080;28;20049;-94
2021/05/26 03:36:42;;;;;;;1.60;0.77;;;;;;;;;;5032661;28;20028;-94
2021/05/26 03:39:09;;;;;;;3.53;0.90;;;;;;;;;;5043434;28;20026;-93
2021/05/26 03:41:35;;;;;;;1.10;0.80;;;;;;;;;;5057783;28;20041;-94
2021/05/26 03:44:01;;;;;;;2.08;0.80;;;;;;;;;;5054790;28;20609;-94
2021/05/26 03:46:27;;;;;;;1.23;0.70;;;;;;;;;;5051962;28;20034;-90
2021/05/26 03:48:54;;;;;;;2.83;0.70;;;;;;;;;;5051141;28;20065;-88
2021/05/26 03:51:20;;;;;;;0.80;0.57;;;;;;;;;;5047475;28;20021;-91
2021/05/26 03:53:46;;;;;;;1.15;0.70;;;;;;;;;;5031584;28;20531;-92
2021/05/26 03:56:12;;;;;;;1.92;0.70;;;;;;;;;;5033079;28;20033;-91
2021/05/26 03:58:38;;;;;;;4.65;0.80;;;;;;;;;;5038706;28;20025;-91
2021/05/26 04:01:04;;;;;;;1.92;0.90;;;;;;;;;;5036245;28;20030;-91
2021/05/26 04:03:30;;;;;;;1.80;0.80;;;;;;;;;;5039436;28;20025;-91
2021/05/26 04:05:57;;;;;;;4.25;0.90;;;;;;;;;;5033805;28;20032;-91
2021/05/26 04:08:23;;;;;;;1.52;0.80;;;;;;;;;;5029428;28;20087;-91
2021/05/26 04:10:50;;;;;;;2.08;0.93;;;;;;;;;;5032481;28;20475;-92
2021/05/26 04:13:16;;;;;;;3.40;0.90;;;;;;;;;;5030110;28;20038;-91
2021/05/26 04:15:42;;;;;;;2.92;1.10;;;;;;;;;;5041464;28;20041;-90
2021/05/26 04:18:09;;;;;;;2.83;0.93;;;;;;;;;;5029503;28;20029;-92
2021/05/26 04:20:35;;;;;;;1.50;0.80;;;;;;;;;;5031020;28;20029;-89
2021/05/26 04:23:02;;;;;;;2.25;0.77;;;;;;;;;;5030680;28;20041;-91
2021/05/26 04:25:28;;;;;;;2.42;0.80;;;;;;;;;;5033137;28;20029;-91
2021/05/26 04:27:55;;;;;;;4.97;0.88;;;;;;;;;;5031326;28;20029;-91
2021/05/26 04:30:21;;;;;;;0.80;0.60;;;;;;;;;;5036815;28;20087;-92
2021/05/26 04:32:47;;;;;;;2.22;1.02;;;;;;;;;;5046997;28;20026;-92
2021/05/26 04:35:13;;;;;;;1.38;0.80;;;;;;;;;;5032453;28;20024;-92
2021/05/26 04:37:39;;;;;;;2.85;0.65;;;;;;;;;;5038851;28;20029;-92
2021/05/26 04:40:06;;;;;;;1.58;0.75;;;;;;;;;;5033039;28;20424;-91
2021/05/26 04:42:32;;;;;;;3.33;0.70;;;;;;;;;;5034725;28;20121;-92
2021/05/26 04:44:58;;;;;;;1.58;1.10;;;;;;;;;;5026103;28;20033;-92
2021/05/26 04:47:24;;;;;;;1.42;0.80;;;;;;;;;;5041241;28;20026;-92
2021/05/26 04:49:50;;;;;;;1.27;0.70;;;;;;;;;;5033391;28;20053;-93
2021/05/26 04:52:16;;;;;;;1.65;0.90;;;;;;;;;;5042430;28;20029;-91
2021/05/26 04:54:42;;;;;;;1.23;0.70;;;;;;;;;;5039496;28;20081;-91
2021/05/26 04:57:08;;;;;;;0.90;0.70;;;;;;;;;;5044518;28;20056;-91
2021/05/26 04:59:34;;;;;;;2.80;0.80;;;;;;;;;;5042311;28;20014;-90
2021/05/26 05:02:01;;;;;;;1.73;0.90;;;;;;;;;;5035294;28;20057;-96
2021/05/26 05:04:27;;;;;;;2.05;1.00;;;;;;;;;;5033382;28;20428;-92
2021/05/26 05:06:55;;;;;;;2.47;0.90;;;;;;;;;;5027032;28;20025;-91
2021/05/26 05:09:21;;;;;;;1.67;0.70;;;;;;;;;;5028628;28;20042;-91
2021/05/26 05:11:47;;;;;;;1.00;0.70;;;;;;;;;;5028533;28;20031;-92
2021/05/26 05:14:13;;;;;;;2.33;0.65;;;;;;;;;;5035684;28;20034;-91
2021/05/26 05:16:39;;;;;;;1.60;0.70;;;;;;;;;;5039329;28;20021;-91
2021/05/26 05:19:05;;;;;;;4.65;1.10;;;;;;;;;;5025433;28;20094;-91
2021/05/26 05:21:32;;;;;;;2.53;0.77;;;;;;;;;;5030826;28;20029;-89
2021/05/26 05:23:58;;;;;;;2.33;0.80;;;;;;;;;;5023530;28;20030;-91
2021/05/26 05:26:24;;;;;;;2.38;0.90;;;;;;;;;;5028543;28;20041;-91
2021/05/26 05:28:50;;;;;;;2.83;0.85;;;;;;;;;;5027093;28;20147;-91
2021/05/26 05:31:16;;;;;;;1.67;0.70;;;;;;;;;;5018876;28;20058;-90
2021/05/26 05:33:42;;;;;;;1.17;0.70;;;;;;;;;;5023596;28;20022;-92
2021/05/26 05:36:09;;;;;;;2.38;1.10;;;;;;;;;;5034313;28;20030;-92
2021/05/26 05:38:35;;;;;;;1.58;0.95;;;;;;;;;;5031428;28;20088;-93
2021/05/26 05:41:01;;;;;;;2.88;0.93;;;;;;;;;;5027982;28;20109;-92
2021/05/26 05:43:27;;;;;;;1.98;0.80;;;;;;;;;;5036125;28;20520;-92
2021/05/26 05:45:53;;;;;;;3.60;1.10;;;;;;;;;;5026779;28;20064;-93
2021/05/26 05:48:19;;;;;;;1.65;0.80;;;;;;;;;;5021030;28;20042;-89
2021/05/26 05:50:45;;;;;;;2.25;1.10;;;;;;;;;;5025529;28;20021;-92
2021/05/26 05:53:13;;;;;;;1.30;0.70;;;;;;;;;;5031834;28;20037;-91
2021/05/26 05:55:39;;;;;;;1.37;0.60;;;;;;;;;;5024833;28;20077;-93
2021/05/26 05:58:05;;;;;;;1.00;0.50;;;;;;;;;;5036013;28;20128;-93
2021/05/26 06:00:35;;;;;;;5.35;0.80;;;;;;;;;;5036063;28;20041;-93
2021/05/26 06:03:01;;;;;;;1.75;0.98;;;;;;;;;;5032885;28;20133;-92
2021/05/26 06:05:27;;;;;;;1.40;0.60;;;;;;;;;;5050375;28;20108;-92
2021/05/26 06:07:53;;;;;;;3.00;1.00;;;;;;;;;;5039199;28;20033;-93
2021/05/26 06:10:19;;;;;;;3.00;0.60;;;;;;;;;;5014239;28;20172;-93
2021/05/26 06:12:47;;;;;;;3.60;0.80;;;;;;;;;;5032386;28;20378;-94
2021/05/26 06:15:13;;;;;;;5.13;1.50;;;;;;;;;;5033393;28;20037;-93
2021/05/26 06:17:39;;;;;;;0.98;0.65;;;;;;;;;;5036962;28;20057;-93
2021/05/26 06:20:07;;;;;;;2.88;0.80;;;;;;;;;;5049795;28;20052;-93
2021/05/26 06:22:33;;;;;;;0.90;0.65;;;;;;;;;;5035733;28;20049;-93
2021/05/26 06:24:59;;;;;;;2.45;0.80;;;;;;;;;;5040824;28;20186;-93
2021/05/26 06:27:25;;;;;;;2.83;0.77;;;;;;;;;;5041883;28;20030;-92
2021/05/26 06:29:51;;;;;;;1.65;0.90;;;;;;;;;;5039874;28;20025;-92
2021/05/26 06:32:17;;;;;;;1.88;0.90;;;;;;;;;;5040191;28;20383;-93
2021/05/26 06:34:43;;;;;;;1.17;0.73;;;;;;;;;;5034747;28;20033;-94
2021/05/26 06:37:09;;;;;;;4.40;0.77;;;;;;;;;;5033444;28;20029;-93
2021/05/26 06:39:35;;;;;;;1.40;0.93;;;;;;;;;;5027552;28;20037;-93
2021/05/26 06:42:01;;;;;;;2.45;1.00;;;;;;;;;;5039036;28;20100;-93
2021/05/26 06:44:27;;;;;;;1.15;0.70;;;;;;;;;;5039081;28;20030;-93
2021/05/26 06:46:53;;;;;;;1.95;0.70;;;;;;;;;;5040490;28;20028;-93
2021/05/26 06:49:19;;;;;;;2.53;0.63;;;;;;;;;;5035396;28;20037;-93
2021/05/26 06:51:45;;;;;;;0.77;0.60;;;;;;;;;;5035163;28;20415;-93
2021/05/26 06:54:11;;;;;;;1.13;0.75;;;;;;;;;;5038670;28;20079;-92
2021/05/26 06:56:37;;;;;;;2.70;0.73;;;;;;;;;;5037153;28;20116;-92
2021/05/26 06:59:03;;;;;;;2.50;0.70;;;;;;;;;;5034441;28;20021;-92
2021/05/26 07:01:29;;;;;;;2.60;0.85;;;;;;;;;;5039023;28;20116;-93
2021/05/26 07:03:55;;;;;;;1.13;0.65;;;;;;;;;;5043663;28;20041;-93
2021/05/26 07:06:21;;;;;;;1.67;0.73;;;;;;;;;;5051792;28;20037;-93
2021/05/26 07:08:47;;;;;;;1.27;0.57;;;;;;;;;;5054078;28;20033;-92
2021/05/26 07:11:13;;;;;;;1.83;0.57;;;;;;;;;;5051062;28;20048;-92
2021/05/26 07:13:39;;;;;;;2.10;0.65;;;;;;;;;;5052546;28;20025;-92
2021/05/26 07:16:06;;;;;;;1.63;0.70;;;;;;;;;;5054493;28;20175;-92
2021/05/26 07:18:33;;;;;;;1.52;0.70;;;;;;;;;;5058096;28;20032;-92
2021/05/26 07:20:59;;;;;;;2.75;0.68;;;;;;;;;;5058419;28;20006;-92
2021/05/26 07:23:25;;;;;;;1.63;0.60;;;;;;;;;;5057739;28;20024;-92
2021/05/26 07:25:51;;;;;;;1.45;0.70;;;;;;;;;;5058177;28;20005;-93
2021/05/26 07:28:17;;;;;;;2.05;0.60;;;;;;;;;;5051200;28;20045;-93
2021/05/26 07:30:44;;;;;;;1.08;0.55;;;;;;;;;;5054105;28;20033;-93
2021/05/26 07:33:10;;;;;;;3.53;0.68;;;;;;;;;;5049285;28;20022;-93
2021/05/26 07:35:37;;;;;;;2.65;0.80;;;;;;;;;;5044852;28;20017;-93
2021/05/26 07:38:04;;;;;;;0.85;0.60;;;;;;;;;;5046656;28;20049;-93
2021/05/26 07:40:30;;;;;;;1.30;0.60;;;;;;;;;;5021646;28;20068;-92
2021/05/26 07:42:56;;;;;;;2.40;0.82;;;;;;;;;;5036596;28;20025;-93
2021/05/26 07:45:22;;;;;;;2.90;0.70;;;;;;;;;;5046817;28;20053;-93
2021/05/26 07:47:48;;;;;;;3.25;0.98;;;;;;;;;;5043853;28;20366;-93
2021/05/26 07:50:14;;;;;;;2.50;0.80;;;;;;;;;;5038299;28;20552;-93
2021/05/26 07:52:40;;;;;;;4.15;0.77;;;;;;;;;;5042271;28;20491;-92
2021/05/26 07:55:06;;;;;;;2.63;0.77;;;;;;;;;;5045050;28;20033;-93
2021/05/26 07:57:32;;;;;;;3.08;1.05;;;;;;;;;;5041238;28;20017;-92
2021/05/26 07:59:58;;;;;;;6.72;1.10;;;;;;;;;;5039781;28;20036;-93
2021/05/26 08:02:24;;;;;;;2.55;1.00;;;;;;;;;;5038221;28;20022;-93
2021/05/26 08:04:52;;;;;;;2.45;0.95;;;;;;;;;;5040566;28;20097;-92
2021/05/26 08:07:18;;;;;;;4.45;0.98;;;;;;;;;;5034900;28;20040;-92
2021/05/26 08:09:44;;;;;;;2.63;1.00;;;;;;;;;;5044869;28;20029;-94
2021/05/26 08:12:10;;;;;;;6.32;1.27;;;;;;;;;;5041092;28;20049;-92
2021/05/26 08:14:36;;;;;;;5.38;1.27;;;;;;;;;;5038859;28;20358;-91
2021/05/26 08:17:03;;;;;;;3.70;1.10;;;;;;;;;;5022151;28;20470;-93
2021/05/26 08:19:29;;;;;;;4.85;1.23;;;;;;;;;;5036507;28;20029;-93
2021/05/26 08:21:55;;;;;;;3.97;1.10;;;;;;;;;;5042698;28;20060;-93
2021/05/26 08:24:21;;;;;;;3.60;1.15;;;;;;;;;;5045987;28;20029;-94
2021/05/26 08:26:50;;;;;;;3.63;1.33;;;;;;;;;;5050460;28;20081;-93
2021/05/26 08:29:17;;;;;;;3.78;1.20;;;;;;;;;;5048200;28;20044;-92
2021/05/26 08:31:44;;;;;;;5.25;1.20;;;;;;;;;;5047725;28;20073;-92
2021/05/26 08:34:10;;;;;;;6.43;1.38;;;;;;;;;;5055876;28;20013;-92
2021/05/26 08:36:36;;;;;;;5.78;1.60;;;;;;;;;;5050010;28;20022;-92
2021/05/26 08:39:03;;;;;;;8.15;1.67;;;;;;;;;;5048768;28;20080;-92
2021/05/26 08:41:29;;;;;;;5.83;2.00;;;;;;;;;;5048710;28;20026;-92
2021/05/26 08:43:55;;;;;;;5.75;1.92;;;;;;;;;;5040388;28;20029;-93
2021/05/26 08:46:22;;;;;;;5.25;1.45;;;;;;;;;;5028144;28;20121;-93
2021/05/26 08:48:48;;;;;;;10.00;2.08;;;;;;;;;;5034973;28;20059;-92
2021/05/26 08:51:17;;;;;;;6.45;1.70;;;;;;;;;;5037723;28;20029;-93
2021/05/26 08:53:43;;;;;;;4.88;1.55;;;;;;;;;;5031434;28;20049;-92
2021/05/26 08:56:09;;;;;;;4.95;1.65;;;;;;;;;;5015761;28;20030;-92
2021/05/26 08:58:39;;;;;;;5.18;1.60;;;;;;;;;;5035258;28;20030;-92
2021/05/26 09:01:06;;;;;;;6.60;1.92;;;;;;;;;;5032111;28;20475;-92
2021/05/26 09:03:32;;;;;;;4.63;2.20;;;;;;;;;;5043748;28;20104;-92
2021/05/26 09:05:59;;;;;;;5.32;1.77;;;;;;;;;;5044018;28;20048;-92
2021/05/26 09:08:25;;;;;;;6.95;1.80;;;;;;;;;;5039306;28;20060;-92
2021/05/26 09:11:04;;;;;;;7.18;1.77;;;;;;;;;;5042782;28;20045;-92
2021/05/26 09:13:30;;;;;;;5.60;1.63;;;;;;;;;;5053147;28;20037;-92
2021/05/26 09:15:57;;;;;;;4.65;1.70;;;;;;;;;;5050960;28;20035;-92
2021/05/26 09:18:23;;;;;;;3.97;1.60;;;;;;;;;;5053496;28;20026;-93
2021/05/26 09:20:49;;;;;;;6.15;1.83;;;;;;;;;;5049311;28;20010;-92
2021/05/26 09:23:27;;;;;;;6.72;2.00;;;;;;;;;;5057485;28;20016;-92
2021/05/26 09:25:55;;;;;;;6.63;2.53;;;;;;;;;;5060157;28;20013;-93
2021/05/26 09:28:25;;;;;;;8.13;2.10;;;;;;;;;;5035718;28;20039;-94
2021/05/26 09:30:53;;;;;;;8.05;2.08;;;;;;;;;;5051351;28;20133;-92
2021/05/26 09:33:23;;;;;;;5.28;1.83;;;;;;;;;;5046512;28;20029;-92
2021/05/26 09:35:54;;;;;;;6.18;1.40;;;;;;;;;;5043427;28;20053;-92
2021/05/26 09:38:20;;;;;;;5.78;1.65;;;;;;;;;;5043941;28;20053;-93
2021/05/26 09:40:47;;;;;;;7.07;2.10;;;;;;;;;;5016908;28;20049;-92
2021/05/26 09:43:13;;;;;;;6.38;1.83;;;;;;;;;;5048800;28;20041;-93
2021/05/26 09:45:39;;;;;;;4.20;2.00;;;;;;;;;;5048531;28;20017;-91
2021/05/26 09:48:06;;;;;;;4.90;1.80;;;;;;;;;;5052147;28;20033;-92
2021/05/26 09:50:37;;;;;;;5.07;1.70;;;;;;;;;;5048543;28;20045;-93
2021/05/26 09:53:15;;;;;;;5.82;1.77;;;;;;;;;;5037889;28;20049;-92
2021/05/26 09:55:45;;;;;;;4.38;1.70;;;;;;;;;;5053597;28;20025;-92
2021/05/26 09:58:12;;;;;;;3.20;1.35;;;;;;;;;;5046432;28;20033;-91
2021/05/26 10:00:40;;;;;;;2.95;1.48;;;;;;;;;;5030595;28;20044;-92
2021/05/26 10:03:06;;;;;;;3.90;1.63;;;;;;;;;;5028799;28;20030;-90
2021/05/26 10:05:34;;;;;;;3.55;1.23;;;;;;;;;;5048191;28;20080;-92
2021/05/26 10:08:00;;;;;;;1.70;1.35;;;;;;;;;;5047142;28;20053;-93
2021/05/26 10:10:28;;;;;;;6.88;1.48;;;;;;;;;;5046671;28;20053;-92
2021/05/26 10:12:57;;;;;;;4.85;1.45;;;;;;;;;;5045227;28;20024;-91
2021/05/26 10:15:25;;;;;;;6.63;1.38;;;;;;;;;;5046957;28;20040;-91
2021/05/26 10:17:55;;;;;;;6.32;1.45;;;;;;;;;;5046785;28;20536;-91
2021/05/26 10:20:28;;;;;;;2.67;1.40;;;;;;;;;;5048059;28;20037;-91
2021/05/26 10:22:56;;;;;;;5.82;1.88;;;;;;;;;;5045454;28;20037;-91
2021/05/26 10:25:22;;;;;;;3.83;1.42;;;;;;;;;;5043522;28;20026;-92
2021/05/26 10:27:52;;;;;;;2.40;1.30;;;;;;;;;;5043853;28;20036;-93
2021/05/26 10:30:20;;;;;;;4.15;1.35;;;;;;;;;;5050032;28;20049;-93
2021/05/26 10:32:46;;;;;;;;;;;;;;;;;;5038632;28;20033;-91
2021/05/26 10:35:12;;;;;;;4.75;1.60;;;;;;;;;;5051197;28;19940;-93
2021/05/26 10:37:41;;;;;;;4.80;1.50;;;;;;;;;;5044928;28;20029;-94
2021/05/26 10:40:30;;;;;;;3.30;1.40;;;;;;;;;;5049828;28;20013;-90
2021/05/26 10:42:56;;;;;;;4.53;1.42;;;;;;;;;;5025716;28;20109;-92
2021/05/26 10:45:34;;;;;;;3.70;1.48;;;;;;;;;;5021989;28;20026;-93
2021/05/26 10:48:00;;;;;;;4.60;1.50;;;;;;;;;;5041865;28;20030;-93
2021/05/26 10:50:45;;;;;;;4.40;1.60;;;;;;;;;;5043488;28;20049;-93
2021/05/26 10:53:14;;;;;;;6.10;1.63;;;;;;;;;;5028332;28;20037;-92
2021/05/26 10:55:41;;;;;;;6.18;1.50;;;;;;;;;;5027707;28;20124;-93
2021/05/26 10:58:14;;;;;;;4.05;1.50;;;;;;;;;;5029603;28;20033;-91
2021/05/26 11:00:41;;;;;;;3.17;1.30;;;;;;;;;;5029105;28;20029;-92
2021/05/26 11:03:28;;;;;;;6.27;1.60;;;;;;;;;;5031554;28;20045;-92
2021/05/26 11:05:54;;;;;;;;;;;;;;;;;;5036261;28;20029;-90
2021/05/26 11:08:27;;;;;;;3.75;1.30;;;;;;;;;;5041231;28;19916;-92
2021/05/26 11:10:53;;;;;;;4.07;1.58;;;;;;;;;;5021790;28;20022;-92
2021/05/26 11:13:19;;;;;;;6.00;1.67;;;;;;;;;;5025675;28;20109;-93
2021/05/26 11:15:47;;;;;;;4.50;1.65;;;;;;;;;;5027135;28;20034;-92
2021/05/26 11:20:52;;;;;;;3.13;1.30;;;;;;;;;;5020360;28;20435;-92
2021/05/26 11:23:18;;;;;;;5.43;1.80;;;;;;;;;;5031071;28;20050;-93
2021/05/26 11:25:50;;;;;;;2.92;1.40;;;;;;;;;;5022662;28;20018;-92
2021/05/26 11:28:32;;;;;;;3.95;1.40;;;;;;;;;;5023077;28;20029;-92
2021/05/26 11:31:05;;;;;;;5.63;1.45;;;;;;;;;;5024391;28;20129;-91
2021/05/26 11:33:32;;;;;;;3.28;1.70;;;;;;;;;;5026864;28;20048;-92
2021/05/26 11:36:03;;;;;;;4.68;1.40;;;;;;;;;;5024879;28;20021;-92
2021/05/26 11:38:29;;;;;;;3.63;1.30;;;;;;;;;;5026237;28;20021;-91
2021/05/26 11:40:55;;;;;;;3.05;1.30;;;;;;;;;;5028103;28;20017;-90
2021/05/26 11:43:23;;;;;;;4.82;1.45;;;;;;;;;;5034078;28;20029;-93
2021/05/26 11:46:02;;;;;;;6.40;1.42;;;;;;;;;;5042587;28;20022;-92
2021/05/26 11:48:29;;;;;;;4.00;1.10;;;;;;;;;;5032679;28;20071;-92
2021/05/26 11:50:55;;;;;;;6.35;1.50;;;;;;;;;;5030238;28;20022;-90
2021/05/26 11:53:21;;;;;;;5.15;1.55;;;;;;;;;;5040973;28;20358;-92
2021/05/26 11:55:48;;;;;;;4.88;1.33;;;;;;;;;;5038242;28;20022;-93
2021/05/26 11:58:15;;;;;;;4.97;1.40;;;;;;;;;;5034779;28;20113;-94
2021/05/26 12:00:41;;;;;;;5.22;1.45;;;;;;;;;;5032559;28;20065;-93
2021/05/26 12:03:13;;;;;;;3.20;1.45;;;;;;;;;;5028421;28;20021;-93
2021/05/26 12:05:51;;;;;;;3.55;1.20;;;;;;;;;;5031880;28;20517;-92
2021/05/26 12:08:24;;;;;;;4.15;1.40;;;;;;;;;;5031416;28;20430;-93
2021/05/26 12:10:54;;;;;;;3.40;1.45;;;;;;;;;;5031704;28;20079;-91
2021/05/26 12:13:21;;;;;;;2.65;1.20;;;;;;;;;;5035851;28;20039;-93
2021/05/26 12:15:47;;;;;;;3.58;1.42;;;;;;;;;;5031786;28;20033;-92
2021/05/26 12:18:13;;;;;;;3.20;1.40;;;;;;;;;;5038062;28;20033;-91
2021/05/26 12:20:51;;;;;;;4.15;1.52;;;;;;;;;;5034035;28;20018;-91
2021/05/26 12:23:33;;;;;;;4.15;1.55;;;;;;;;;;5024383;28;20426;-93
2021/05/26 12:25:59;;;;;;;4.65;1.50;;;;;;;;;;5032923;28;20064;-92
2021/05/26 12:28:28;;;;;;;3.22;1.50;;;;;;;;;;5038276;28;20134;-94
2021/05/26 12:30:54;;;;;;;5.55;1.67;;;;;;;;;;5038569;28;20119;-93
2021/05/26 12:33:21;;;;;;;2.78;1.40;;;;;;;;;;5046108;28;20033;-93
2021/05/26 12:36:06;;;;;;;4.45;1.50;;;;;;;;;;5033117;28;20018;-93
2021/05/26 12:38:41;;;;;;;4.22;1.50;;;;;;;;;;5038426;28;20037;-93
2021/05/26 12:41:24;;;;;;;4.18;1.50;;;;;;;;;;5032298;28;20053;-93
2021/05/26 12:43:51;;;;;;;3.92;1.20;;;;;;;;;;5042481;28;20030;-92
2021/05/26 12:46:36;;;;;;;6.60;1.63;;;;;;;;;;5024065;28;20129;-92
2021/05/26 12:49:04;;;;;;;4.63;1.80;;;;;;;;;;5051460;28;20286;-92
2021/05/26 12:51:39;;;;;;;3.28;1.52;;;;;;;;;;5052391;28;20235;-92
2021/05/26 12:54:05;;;;;;;6.07;1.70;;;;;;;;;;5054353;28;20030;-92
2021/05/26 12:56:31;;;;;;;3.22;1.52;;;;;;;;;;5054808;28;20022;-92
2021/05/26 12:58:57;;;;;;;3.92;1.70;;;;;;;;;;5056066;28;20033;-92
2021/05/26 13:01:24;;;;;;;3.20;1.35;;;;;;;;;;5045756;28;20045;-93
2021/05/26 13:03:50;;;;;;;4.82;1.48;;;;;;;;;;5038457;28;20024;-94
2021/05/26 13:06:17;;;;;;;4.13;1.75;;;;;;;;;;5035428;28;20544;-95
2021/05/26 13:08:59;;;;;;;4.25;1.88;;;;;;;;;;5043833;28;20162;-93
2021/05/26 13:11:39;;;;;;;4.80;1.73;;;;;;;;;;5019491;28;20033;-93
2021/05/26 13:14:05;;;;;;;3.80;1.52;;;;;;;;;;5047852;28;20029;-93
2021/05/26 13:16:31;;;;;;;4.80;1.70;;;;;;;;;;5038310;28;20033;-94
2021/05/26 13:18:57;;;;;;;3.92;1.48;;;;;;;;;;5037115;28;20075;-93
2021/05/26 13:21:23;;;;;;;4.60;1.70;;;;;;;;;;5034694;28;20450;-94
2021/05/26 13:23:49;;;;;;;4.10;1.50;;;;;;;;;;5037432;28;20026;-92
2021/05/26 13:26:15;;;;;;;4.60;1.77;;;;;;;;;;5033870;28;20036;-92
2021/05/26 13:28:41;;;;;;;5.00;1.88;;;;;;;;;;5042926;28;20040;-93
2021/05/26 13:31:07;;;;;;;4.47;1.60;;;;;;;;;;5045582;28;20057;-94
2021/05/26 13:33:35;;;;;;;4.90;1.88;;;;;;;;;;5046466;28;20481;-93
2021/05/26 13:36:01;;;;;;;8.00;2.13;;;;;;;;;;5032909;28;20125;-93
2021/05/26 13:38:27;;;;;;;3.83;1.70;;;;;;;;;;5027274;28;20044;-92
2021/05/26 13:40:53;;;;;;;4.00;1.70;;;;;;;;;;5035595;28;20113;-94
2021/05/26 13:43:19;;;;;;;8.23;1.85;;;;;;;;;;5036440;28;20533;-94
2021/05/26 13:45:45;;;;;;;7.28;1.40;;;;;;;;;;5035590;28;20037;-94
2021/05/26 13:48:11;;;;;;;4.43;1.35;;;;;;;;;;5032201;28;20057;-93
2021/05/26 13:50:41;;;;;;;3.40;1.52;;;;;;;;;;5033620;28;20485;-94
2021/05/26 13:53:08;;;;;;;3.63;1.58;;;;;;;;;;5039653;28;20030;-94
2021/05/26 13:55:34;;;;;;;5.25;1.63;;;;;;;;;;5038052;28;20017;-93
2021/05/26 13:58:01;;;;;;;3.75;1.73;;;;;;;;;;5037984;28;20061;-92
2021/05/26 14:00:33;;;;;;;7.45;1.80;;;;;;;;;;5048777;28;20060;-95
2021/05/26 14:02:59;;;;;;;6.50;1.95;;;;;;;;;;5056471;28;20032;-91
2021/05/26 14:05:25;;;;;;;3.53;1.40;;;;;;;;;;5052803;28;20014;-94
2021/05/26 14:07:51;;;;;;;3.30;1.55;;;;;;;;;;5028614;28;20037;-92
2021/05/26 14:10:19;;;;;;;3.05;1.48;;;;;;;;;;5040242;28;20049;-91
2021/05/26 14:12:46;;;;;;;8.13;1.90;;;;;;;;;;5038056;28;20440;-91
2021/05/26 14:15:13;;;;;;;5.60;1.90;;;;;;;;;;5048260;28;20030;-92
2021/05/26 14:17:39;;;;;;;3.83;1.50;;;;;;;;;;5041561;28;20021;-91
2021/05/26 14:20:06;;;;;;;4.93;1.65;;;;;;;;;;5034006;28;20061;-94
2021/05/26 14:22:32;;;;;;;5.07;2.03;;;;;;;;;;5046465;28;20048;-90
2021/05/26 14:24:59;;;;;;;4.93;1.42;;;;;;;;;;5051476;28;20032;-91
2021/05/26 14:27:25;;;;;;;2.85;1.45;;;;;;;;;;5041823;28;20466;-91
2021/05/26 14:29:51;;;;;;;7.40;1.80;;;;;;;;;;5032563;28;20060;-91
2021/05/26 14:32:17;;;;;;;4.07;1.67;;;;;;;;;;5032801;28;20044;-93
2021/05/26 14:34:45;;;;;;;4.65;1.55;;;;;;;;;;5036198;28;20036;-94
2021/05/26 14:37:12;;;;;;;3.97;1.63;;;;;;;;;;5039300;28;20032;-91
2021/05/26 14:39:40;;;;;;;6.53;1.55;;;;;;;;;;5047972;28;20021;-93
2021/05/26 14:42:07;;;;;;;4.00;1.60;;;;;;;;;;5049409;28;20025;-93
2021/05/26 14:44:33;;;;;;;5.20;1.67;;;;;;;;;;5048769;28;20072;-93
2021/05/26 14:46:59;;;;;;;9.27;1.80;;;;;;;;;;5043568;28;20101;-92
2021/05/26 14:49:25;;;;;;;3.20;1.67;;;;;;;;;;5036247;28;20052;-93